weather.gov     
National Weather Service

Terminal Aerodrome Forecast
NWS Homepage
This page is being discontinued on March 12, 2014.
The same data is available at this site. Please update your bookmarks.
Thank you, and we apologize for the inconvenience.
Please send an email to SR-SRH.Webmaster@noaa.gov with any concerns.


Current Version
Previous Version:    01  02  03  04  05  06  07  08  09  10  11  12  13  14  15  16  17  18  19  20  21  22  23  24  25  26  27  28  29  30  
   31  32  33  34  35  36  37  38  39  
[Printable]
872
FTUS44 KOHX 250600 AAB
TAFBNA
TAF AMD
KBNA 250657Z 2507/2606 18010KT P6SM SCT050 BKN250
      TEMPO 2507/2508 3SM TSRA OVC025CB
     FM251100 27012G20KT P6SM VCSH BKN035
     FM251400 30012G22KT P6SM BKN020
     FM251800 32015G25KT P6SM SCT045
     FM252200 32012G22KT P6SM SKC=


U.S. Dept. of Commerce
NOAA National Weather Service
1325 East West Highway
Silver Spring, MD 20910
E-mail: w-nws.webmaster@noaa.gov
Page last modified: May 16, 2007
NATIONAL WEATHER SERVICE: for Safety, for Work, for Fun - FOR LIFE